Orange8 — JL6278 — position and weather

sailwx.info

Track history (hours):
 
Tides and Currents Weather Stations Pressure Air Temp Water Temp Dewpoint Dewpoint Depression Visibility Wind Speed Wind Dir Waves Ship Positions

Orange8

Last reported at 2015-Mar-02 00:33 UTC. Time now 2015-Mar-02 01:04 UTC.
Position N 34°37' E 135°26'.

Length 164 m; draft 5 m.

Type: Passenger vessel. MMSI: 431501603.

Date/timePositionNaut miles runAvg speedWind from/ knotsBaromVisibWave heightAir tempDewpointWater temp
2015-Mar-02 00:33N 34°37' E 135°26'0 0.0
2015-Mar-01 23:33N 34°37' E 135°26'0 0.0
2015-Mar-01 22:33N 34°37' E 135°26'0 0.0
2015-Mar-01 21:33N 34°37' E 135°26'5 5.2
2015-Mar-01 20:33N 34°36' E 135°20'1817.4
2015-Mar-01 19:32N 34°37' E 134°58'1 0.0
2015-Feb-28 14:34N 34°37' E 134°57'1817.7
2015-Feb-28 13:34N 34°36' E 135°19'6 5.7
2015-Feb-28 12:32N 34°37' E 135°26'0 0.0
2015-Feb-28 11:32N 34°37' E 135°26'0 0.0
2015-Feb-28 10:32N 34°37' E 135°26'0 0.0
2015-Feb-28 09:32N 34°37' E 135°26'0 0.0
2015-Feb-28 08:32N 34°37' E 135°26'0 0.0
2015-Feb-28 07:32N 34°37' E 135°26'0 0.0
2015-Feb-28 06:32N 34°37' E 135°26'0 0.0
2015-Feb-28 05:32N 34°37' E 135°26'0 0.0
2015-Feb-28 04:32N 34°37' E 135°26'0 0.0
2015-Feb-28 03:26N 34°37' E 135°26'0 0.0
2015-Feb-28 02:32N 34°37' E 135°26'0 0.0
2015-Feb-28 01:26N 34°37' E 135°26'0 0.0
2015-Feb-28 00:32N 34°37' E 135°26'0 0.0
2015-Feb-27 23:32N 34°37' E 135°26'0 0.0
2015-Feb-27 22:32N 34°37' E 135°26'0 0.0
2015-Feb-27 21:32N 34°37' E 135°26'6 5.9
2015-Feb-27 20:33N 34°36' E 135°19'1817.8
2015-Feb-27 19:33N 34°36' E 134°57'9 0.3
2015-Feb-26 15:05N 34°33' E 134°47'1018.6
2015-Feb-26 14:33N 34°37' E 134°58'1717.3
2015-Feb-26 13:33N 34°37' E 135°19'6 5.2
2015-Feb-26 12:28N 34°37' E 135°26'0 0.0
2015-Feb-26 11:28N 34°37' E 135°26'0 0.0
2015-Feb-26 10:22N 34°37' E 135°26'0 0.0
2015-Feb-26 09:28N 34°37' E 135°26'0 0.0
2015-Feb-26 08:28N 34°37' E 135°26'0 0.0
2015-Feb-26 07:28N 34°37' E 135°26'0 0.0
2015-Feb-26 06:28N 34°37' E 135°26'0 0.0
2015-Feb-26 05:28N 34°37' E 135°26'0 0.0
2015-Feb-26 04:22N 34°37' E 135°26'0 0.0
2015-Feb-26 03:16N 34°37' E 135°26'0 0.0
2015-Feb-26 01:07N 34°37' E 135°26'0 0.0
2015-Feb-26 00:31N 34°37' E 135°26'0 0.0
2015-Feb-25 23:19N 34°37' E 135°26'0 0.0
2015-Feb-25 22:31N 34°37' E 135°26'0 0.0
2015-Feb-25 21:31N 34°37' E 135°26'6 6.2
2015-Feb-25 20:33N 34°36' E 135°19'1918.4
2015-Feb-25 19:33N 34°36' E 134°56'1 0.0
2015-Feb-24 14:33N 34°37' E 134°57'1818.0
2015-Feb-24 13:33N 34°36' E 135°19'6 5.1
2015-Feb-24 12:22N 34°37' E 135°26'0 0.0
2015-Feb-24 11:28N 34°37' E 135°26'0 0.0
2015-Feb-24 10:28N 34°37' E 135°26'0 0.0
2015-Feb-24 09:22N 34°37' E 135°26'0 0.0
2015-Feb-24 08:28N 34°37' E 135°26'0 0.0
2015-Feb-24 07:28N 34°37' E 135°26'0 0.0
2015-Feb-24 06:28N 34°37' E 135°26'0 0.0
2015-Feb-24 05:28N 34°37' E 135°26'0 0.0
2015-Feb-24 00:28N 34°37' E 135°26'0 0.0
2015-Feb-23 23:16N 34°37' E 135°26'0 0.0
2015-Feb-23 21:14N 34°37' E 135°26'6 9.4
2015-Feb-23 20:33N 34°36' E 135°18'1817.7
2015-Feb-23 19:33N 34°36' E 134°57'1 0.0
2015-Feb-22 14:34N 34°37' E 134°57'1918.6
2015-Feb-22 13:34N 34°37' E 135°20'5 4.9
2015-Feb-22 12:30N 34°37' E 135°26'0 0.0
2015-Feb-22 11:30N 34°37' E 135°26'0 0.0
2015-Feb-22 10:30N 34°37' E 135°26'0 0.0
2015-Feb-22 09:30N 34°37' E 135°26'0 0.0
2015-Feb-22 08:30N 34°37' E 135°26'0 0.0
2015-Feb-22 07:30N 34°37' E 135°26'0 0.0
2015-Feb-22 06:30N 34°37' E 135°26'0 0.0
2015-Feb-22 05:30N 34°37' E 135°26'0 0.0
2015-Feb-22 04:24N 34°37' E 135°26'0 0.0
2015-Feb-22 03:30N 34°37' E 135°26'0 0.0
2015-Feb-22 02:30N 34°37' E 135°26'0 0.0
2015-Feb-22 01:30N 34°37' E 135°26'0 0.0
2015-Feb-22 00:24N 34°37' E 135°26'0 0.0
2015-Feb-21 23:24N 34°37' E 135°26'0 0.0
2015-Feb-21 22:30N 34°37' E 135°26'0 0.0
2015-Feb-21 21:30N 34°37' E 135°26'6 6.0
2015-Feb-21 20:33N 34°35' E 135°19'1818.0
2015-Feb-21 19:33N 34°36' E 134°57'1 0.0
2015-Feb-20 14:30N 34°37' E 134°58'1818.6
2015-Feb-20 13:33N 34°37' E 135°19'6 5.5
2015-Feb-20 12:32N 34°37' E 135°26'0 0.0
2015-Feb-20 11:32N 34°37' E 135°26'0 0.0
2015-Feb-20 10:32N 34°37' E 135°26'0 0.0
2015-Feb-20 09:32N 34°37' E 135°26'0 0.0
2015-Feb-20 08:32N 34°37' E 135°26'0 0.0
2015-Feb-20 07:26N 34°37' E 135°26'0 0.0
2015-Feb-20 06:20N 34°37' E 135°26'0 0.0
2015-Feb-20 05:26N 34°37' E 135°26'0 0.0
2015-Feb-20 04:32N 34°37' E 135°26'0 0.0
2015-Feb-20 03:32N 34°37' E 135°26'0 0.0
2015-Feb-20 02:32N 34°37' E 135°26'0 0.0
2015-Feb-20 01:32N 34°37' E 135°26'  
Track history (hours):
 
Tides and Currents Weather Stations Pressure Air Temp Water Temp Dewpoint Dewpoint Depression Visibility Wind Speed Wind Dir Waves Ship Positions

Orange8

Last reported at 2015-Mar-02 00:33 UTC. Time now 2015-Mar-02 01:04 UTC.
Position N 34°37' E 135°26'.

Length 164 m; draft 5 m.

Type: Passenger vessel. MMSI: 431501603.

Date/timePositionNaut miles runAvg speedWind from/ knotsBaromVisibWave heightAir tempDewpointWater temp
2015-Mar-02 00:33N 34°37' E 135°26'0 0.0
2015-Mar-01 23:33N 34°37' E 135°26'0 0.0
2015-Mar-01 22:33N 34°37' E 135°26'0 0.0
2015-Mar-01 21:33N 34°37' E 135°26'5 5.2
2015-Mar-01 20:33N 34°36' E 135°20'1817.4
2015-Mar-01 19:32N 34°37' E 134°58'1 0.0
2015-Feb-28 14:34N 34°37' E 134°57'1817.7
2015-Feb-28 13:34N 34°36' E 135°19'6 5.7
2015-Feb-28 12:32N 34°37' E 135°26'0 0.0
2015-Feb-28 11:32N 34°37' E 135°26'0 0.0
2015-Feb-28 10:32N 34°37' E 135°26'0 0.0
2015-Feb-28 09:32N 34°37' E 135°26'0 0.0
2015-Feb-28 08:32N 34°37' E 135°26'0 0.0
2015-Feb-28 07:32N 34°37' E 135°26'0 0.0
2015-Feb-28 06:32N 34°37' E 135°26'0 0.0
2015-Feb-28 05:32N 34°37' E 135°26'0 0.0
2015-Feb-28 04:32N 34°37' E 135°26'0 0.0
2015-Feb-28 03:26N 34°37' E 135°26'0 0.0
2015-Feb-28 02:32N 34°37' E 135°26'0 0.0
2015-Feb-28 01:26N 34°37' E 135°26'0 0.0
2015-Feb-28 00:32N 34°37' E 135°26'0 0.0
2015-Feb-27 23:32N 34°37' E 135°26'0 0.0
2015-Feb-27 22:32N 34°37' E 135°26'0 0.0
2015-Feb-27 21:32N 34°37' E 135°26'6 5.9
2015-Feb-27 20:33N 34°36' E 135°19'1817.8
2015-Feb-27 19:33N 34°36' E 134°57'9 0.3
2015-Feb-26 15:05N 34°33' E 134°47'1018.6
2015-Feb-26 14:33N 34°37' E 134°58'1717.3
2015-Feb-26 13:33N 34°37' E 135°19'6 5.2
2015-Feb-26 12:28N 34°37' E 135°26'0 0.0
2015-Feb-26 11:28N 34°37' E 135°26'0 0.0
2015-Feb-26 10:22N 34°37' E 135°26'0 0.0
2015-Feb-26 09:28N 34°37' E 135°26'0 0.0
2015-Feb-26 08:28N 34°37' E 135°26'0 0.0
2015-Feb-26 07:28N 34°37' E 135°26'0 0.0
2015-Feb-26 06:28N 34°37' E 135°26'0 0.0
2015-Feb-26 05:28N 34°37' E 135°26'0 0.0
2015-Feb-26 04:22N 34°37' E 135°26'0 0.0
2015-Feb-26 03:16N 34°37' E 135°26'0 0.0
2015-Feb-26 01:07N 34°37' E 135°26'0 0.0
2015-Feb-26 00:31N 34°37' E 135°26'0 0.0
2015-Feb-25 23:19N 34°37' E 135°26'0 0.0
2015-Feb-25 22:31N 34°37' E 135°26'0 0.0
2015-Feb-25 21:31N 34°37' E 135°26'6 6.2
2015-Feb-25 20:33N 34°36' E 135°19'1918.4
2015-Feb-25 19:33N 34°36' E 134°56'1 0.0
2015-Feb-24 14:33N 34°37' E 134°57'1818.0
2015-Feb-24 13:33N 34°36' E 135°19'6 5.1
2015-Feb-24 12:22N 34°37' E 135°26'0 0.0
2015-Feb-24 11:28N 34°37' E 135°26'0 0.0
2015-Feb-24 10:28N 34°37' E 135°26'0 0.0
2015-Feb-24 09:22N 34°37' E 135°26'0 0.0
2015-Feb-24 08:28N 34°37' E 135°26'0 0.0
2015-Feb-24 07:28N 34°37' E 135°26'0 0.0
2015-Feb-24 06:28N 34°37' E 135°26'0 0.0
2015-Feb-24 05:28N 34°37' E 135°26'0 0.0
2015-Feb-24 00:28N 34°37' E 135°26'0 0.0
2015-Feb-23 23:16N 34°37' E 135°26'0 0.0
2015-Feb-23 21:14N 34°37' E 135°26'6 9.4
2015-Feb-23 20:33N 34°36' E 135°18'1817.7
2015-Feb-23 19:33N 34°36' E 134°57'1 0.0
2015-Feb-22 14:34N 34°37' E 134°57'1918.6
2015-Feb-22 13:34N 34°37' E 135°20'5 4.9
2015-Feb-22 12:30N 34°37' E 135°26'0 0.0
2015-Feb-22 11:30N 34°37' E 135°26'0 0.0
2015-Feb-22 10:30N 34°37' E 135°26'0 0.0
2015-Feb-22 09:30N 34°37' E 135°26'0 0.0
2015-Feb-22 08:30N 34°37' E 135°26'0 0.0
2015-Feb-22 07:30N 34°37' E 135°26'0 0.0
2015-Feb-22 06:30N 34°37' E 135°26'0 0.0
2015-Feb-22 05:30N 34°37' E 135°26'0 0.0
2015-Feb-22 04:24N 34°37' E 135°26'0 0.0
2015-Feb-22 03:30N 34°37' E 135°26'0 0.0
2015-Feb-22 02:30N 34°37' E 135°26'0 0.0
2015-Feb-22 01:30N 34°37' E 135°26'0 0.0
2015-Feb-22 00:24N 34°37' E 135°26'0 0.0
2015-Feb-21 23:24N 34°37' E 135°26'0 0.0
2015-Feb-21 22:30N 34°37' E 135°26'0 0.0
2015-Feb-21 21:30N 34°37' E 135°26'6 6.0
2015-Feb-21 20:33N 34°35' E 135°19'1818.0
2015-Feb-21 19:33N 34°36' E 134°57'1 0.0
2015-Feb-20 14:30N 34°37' E 134°58'1818.6
2015-Feb-20 13:33N 34°37' E 135°19'6 5.5
2015-Feb-20 12:32N 34°37' E 135°26'0 0.0
2015-Feb-20 11:32N 34°37' E 135°26'0 0.0
2015-Feb-20 10:32N 34°37' E 135°26'0 0.0
2015-Feb-20 09:32N 34°37' E 135°26'0 0.0
2015-Feb-20 08:32N 34°37' E 135°26'0 0.0
2015-Feb-20 07:26N 34°37' E 135°26'0 0.0
2015-Feb-20 06:20N 34°37' E 135°26'0 0.0
2015-Feb-20 05:26N 34°37' E 135°26'0 0.0
2015-Feb-20 04:32N 34°37' E 135°26'0 0.0
2015-Feb-20 03:32N 34°37' E 135°26'0 0.0
2015-Feb-20 02:32N 34°37' E 135°26'0 0.0
2015-Feb-20 01:32N 34°37' E 135°26'  

Dump ship's entire track history